sensor_id;sensor_type;location;lat;lon;timestamp;P1;durP1;ratioP1;P2;durP2;ratioP2
77451;SDS011;66537;52.370;4.832;2023-03-24T00:00:37;16.33;;;5.43;;
77451;SDS011;66537;52.370;4.832;2023-03-24T00:03:03;13.50;;;5.07;;
77451;SDS011;66537;52.370;4.832;2023-03-24T00:05:28;17.13;;;5.50;;
77451;SDS011;66537;52.370;4.832;2023-03-24T00:07:54;14.02;;;4.60;;
77451;SDS011;66537;52.370;4.832;2023-03-24T00:10:21;15.40;;;4.90;;
77451;SDS011;66537;52.370;4.832;2023-03-24T00:12:47;14.85;;;5.20;;
77451;SDS011;66537;52.370;4.832;2023-03-24T00:15:15;15.50;;;5.70;;
77451;SDS011;66537;52.370;4.832;2023-03-24T00:17:46;18.83;;;5.93;;
77451;SDS011;66537;52.370;4.832;2023-03-24T00:20:14;14.15;;;5.25;;
77451;SDS011;66537;52.370;4.832;2023-03-24T00:22:45;14.95;;;6.80;;
77451;SDS011;66537;52.370;4.832;2023-03-24T00:25:13;15.75;;;5.20;;
77451;SDS011;66537;52.370;4.832;2023-03-24T00:27:40;13.30;;;5.55;;
77451;SDS011;66537;52.370;4.832;2023-03-24T00:30:09;13.00;;;5.15;;
77451;SDS011;66537;52.370;4.832;2023-03-24T00:32:36;15.23;;;5.15;;
77451;SDS011;66537;52.370;4.832;2023-03-24T00:35:06;13.13;;;5.72;;
77451;SDS011;66537;52.370;4.832;2023-03-24T00:37:33;13.52;;;5.07;;
77451;SDS011;66537;52.370;4.832;2023-03-24T00:40:06;13.55;;;6.88;;
77451;SDS011;66537;52.370;4.832;2023-03-24T00:42:36;17.52;;;6.38;;
77451;SDS011;66537;52.370;4.832;2023-03-24T00:45:02;13.07;;;5.78;;
77451;SDS011;66537;52.370;4.832;2023-03-24T00:47:30;12.75;;;5.78;;
77451;SDS011;66537;52.370;4.832;2023-03-24T00:50:01;12.90;;;5.68;;
77451;SDS011;66537;52.370;4.832;2023-03-24T00:52:29;11.98;;;4.97;;
77451;SDS011;66537;52.370;4.832;2023-03-24T00:54:58;11.38;;;4.53;;
77451;SDS011;66537;52.370;4.832;2023-03-24T00:57:25;12.70;;;5.05;;
77451;SDS011;66537;52.370;4.832;2023-03-24T00:59:54;14.00;;;4.13;;
77451;SDS011;66537;52.370;4.832;2023-03-24T01:02:24;16.13;;;3.97;;
77451;SDS011;66537;52.370;4.832;2023-03-24T01:04:56;10.00;;;3.75;;
77451;SDS011;66537;52.370;4.832;2023-03-24T01:07:23;9.00;;;3.45;;
77451;SDS011;66537;52.370;4.832;2023-03-24T01:09:51;8.38;;;3.10;;
77451;SDS011;66537;52.370;4.832;2023-03-24T01:12:26;9.93;;;3.58;;
77451;SDS011;66537;52.370;4.832;2023-03-24T01:14:56;15.25;;;3.80;;
77451;SDS011;66537;52.370;4.832;2023-03-24T01:17:23;13.43;;;4.00;;
77451;SDS011;66537;52.370;4.832;2023-03-24T01:19:50;10.18;;;3.78;;
77451;SDS011;66537;52.370;4.832;2023-03-24T01:22:16;11.73;;;3.30;;
77451;SDS011;66537;52.370;4.832;2023-03-24T01:24:42;9.73;;;3.33;;
77451;SDS011;66537;52.370;4.832;2023-03-24T01:27:07;10.85;;;4.45;;
77451;SDS011;66537;52.370;4.832;2023-03-24T01:29:33;10.18;;;3.45;;
77451;SDS011;66537;52.370;4.832;2023-03-24T01:31:58;11.73;;;4.20;;
77451;SDS011;66537;52.370;4.832;2023-03-24T01:34:24;8.52;;;3.67;;
77451;SDS011;66537;52.370;4.832;2023-03-24T01:36:49;12.27;;;3.83;;
77451;SDS011;66537;52.370;4.832;2023-03-24T01:39:15;9.97;;;4.53;;
77451;SDS011;66537;52.370;4.832;2023-03-24T01:41:40;9.93;;;4.07;;
77451;SDS011;66537;52.370;4.832;2023-03-24T01:44:25;11.32;;;4.63;;
77451;SDS011;66537;52.370;4.832;2023-03-24T01:47:00;9.23;;;4.85;;
77451;SDS011;66537;52.370;4.832;2023-03-24T01:49:28;14.20;;;5.18;;
77451;SDS011;66537;52.370;4.832;2023-03-24T01:51:59;16.77;;;5.93;;
77451;SDS011;66537;52.370;4.832;2023-03-24T01:54:29;15.23;;;7.65;;
77451;SDS011;66537;52.370;4.832;2023-03-24T01:57:05;10.13;;;4.70;;
77451;SDS011;66537;52.370;4.832;2023-03-24T01:59:35;12.55;;;4.25;;
77451;SDS011;66537;52.370;4.832;2023-03-24T02:02:04;14.00;;;4.32;;
77451;SDS011;66537;52.370;4.832;2023-03-24T02:04:31;11.27;;;3.67;;
77451;SDS011;66537;52.370;4.832;2023-03-24T02:07:13;11.80;;;3.00;;
77451;SDS011;66537;52.370;4.832;2023-03-24T02:09:43;10.98;;;2.47;;
77451;SDS011;66537;52.370;4.832;2023-03-24T02:12:09;10.88;;;2.78;;
77451;SDS011;66537;52.370;4.832;2023-03-24T02:14:34;9.05;;;1.75;;
77451;SDS011;66537;52.370;4.832;2023-03-24T02:22:52;9.35;;;1.60;;
77451;SDS011;66537;52.370;4.832;2023-03-24T02:28:38;11.02;;;1.90;;
77451;SDS011;66537;52.370;4.832;2023-03-24T02:37:00;11.35;;;1.55;;
77451;SDS011;66537;52.370;4.832;2023-03-24T02:51:04;11.43;;;1.05;;
77451;SDS011;66537;52.370;4.832;2023-03-24T02:56:49;9.77;;;1.52;;
77451;SDS011;66537;52.370;4.832;2023-03-24T02:59:44;12.85;;;1.23;;
77451;SDS011;66537;52.370;4.832;2023-03-24T03:02:24;11.30;;;1.92;;
77451;SDS011;66537;52.370;4.832;2023-03-24T03:04:55;9.93;;;1.48;;
77451;SDS011;66537;52.370;4.832;2023-03-24T03:07:25;12.05;;;1.92;;
77451;SDS011;66537;52.370;4.832;2023-03-24T03:10:07;14.35;;;1.35;;
77451;SDS011;66537;52.370;4.832;2023-03-24T03:12:41;16.27;;;2.03;;
77451;SDS011;66537;52.370;4.832;2023-03-24T03:15:15;9.57;;;1.35;;
77451;SDS011;66537;52.370;4.832;2023-03-24T03:17:52;13.68;;;1.38;;
77451;SDS011;66537;52.370;4.832;2023-03-24T03:20:41;10.85;;;1.42;;
77451;SDS011;66537;52.370;4.832;2023-03-24T03:23:14;12.63;;;1.90;;
77451;SDS011;66537;52.370;4.832;2023-03-24T03:25:44;11.15;;;1.20;;
77451;SDS011;66537;52.370;4.832;2023-03-24T03:28:15;12.38;;;1.63;;
77451;SDS011;66537;52.370;4.832;2023-03-24T03:30:46;12.95;;;1.35;;
77451;SDS011;66537;52.370;4.832;2023-03-24T03:33:28;11.07;;;1.52;;
77451;SDS011;66537;52.370;4.832;2023-03-24T03:36:04;10.63;;;1.77;;
77451;SDS011;66537;52.370;4.832;2023-03-24T03:41:17;17.67;;;3.47;;
77451;SDS011;66537;52.370;4.832;2023-03-24T03:43:44;13.60;;;1.50;;
77451;SDS011;66537;52.370;4.832;2023-03-24T03:46:11;12.45;;;1.60;;
77451;SDS011;66537;52.370;4.832;2023-03-24T03:48:37;13.65;;;1.23;;
77451;SDS011;66537;52.370;4.832;2023-03-24T03:51:04;12.77;;;1.65;;
77451;SDS011;66537;52.370;4.832;2023-03-24T03:53:32;15.10;;;1.42;;
77451;SDS011;66537;52.370;4.832;2023-03-24T03:56:06;13.35;;;1.95;;
77451;SDS011;66537;52.370;4.832;2023-03-24T03:58:32;12.15;;;1.92;;
77451;SDS011;66537;52.370;4.832;2023-03-24T04:00:57;17.25;;;1.83;;
77451;SDS011;66537;52.370;4.832;2023-03-24T04:03:48;12.35;;;2.15;;
77451;SDS011;66537;52.370;4.832;2023-03-24T04:12:25;16.60;;;1.90;;
77451;SDS011;66537;52.370;4.832;2023-03-24T04:20:23;10.68;;;1.55;;
77451;SDS011;66537;52.370;4.832;2023-03-24T04:26:06;13.82;;;1.45;;
77451;SDS011;66537;52.370;4.832;2023-03-24T04:28:40;16.40;;;1.73;;
77451;SDS011;66537;52.370;4.832;2023-03-24T04:31:14;11.82;;;1.80;;
77451;SDS011;66537;52.370;4.832;2023-03-24T04:33:48;11.35;;;1.40;;
77451;SDS011;66537;52.370;4.832;2023-03-24T04:36:21;17.40;;;2.25;;
77451;SDS011;66537;52.370;4.832;2023-03-24T04:38:53;20.40;;;3.20;;
77451;SDS011;66537;52.370;4.832;2023-03-24T04:41:21;18.98;;;2.03;;
77451;SDS011;66537;52.370;4.832;2023-03-24T04:43:51;16.27;;;2.22;;
77451;SDS011;66537;52.370;4.832;2023-03-24T04:46:19;19.13;;;2.00;;
77451;SDS011;66537;52.370;4.832;2023-03-24T04:48:45;20.25;;;1.98;;
77451;SDS011;66537;52.370;4.832;2023-03-24T04:51:15;19.27;;;2.55;;
77451;SDS011;66537;52.370;4.832;2023-03-24T04:53:42;21.40;;;2.78;;
77451;SDS011;66537;52.370;4.832;2023-03-24T04:58:51;20.83;;;2.22;;
77451;SDS011;66537;52.370;4.832;2023-03-24T05:01:17;20.40;;;1.90;;
77451;SDS011;66537;52.370;4.832;2023-03-24T05:03:45;20.73;;;2.97;;
77451;SDS011;66537;52.370;4.832;2023-03-24T05:06:11;22.20;;;2.60;;
77451;SDS011;66537;52.370;4.832;2023-03-24T05:08:37;23.45;;;3.17;;
77451;SDS011;66537;52.370;4.832;2023-03-24T05:11:02;15.68;;;2.55;;
77451;SDS011;66537;52.370;4.832;2023-03-24T05:13:28;23.20;;;2.67;;
77451;SDS011;66537;52.370;4.832;2023-03-24T05:15:53;20.23;;;4.07;;
77451;SDS011;66537;52.370;4.832;2023-03-24T05:18:19;23.95;;;3.45;;
77451;SDS011;66537;52.370;4.832;2023-03-24T05:20:44;29.98;;;3.70;;
77451;SDS011;66537;52.370;4.832;2023-03-24T05:23:09;25.13;;;3.65;;
77451;SDS011;66537;52.370;4.832;2023-03-24T05:25:35;23.27;;;3.17;;
77451;SDS011;66537;52.370;4.832;2023-03-24T05:28:00;28.13;;;3.47;;
77451;SDS011;66537;52.370;4.832;2023-03-24T05:30:27;22.95;;;2.85;;
77451;SDS011;66537;52.370;4.832;2023-03-24T05:32:52;26.85;;;3.47;;
77451;SDS011;66537;52.370;4.832;2023-03-24T05:35:18;24.80;;;2.85;;
77451;SDS011;66537;52.370;4.832;2023-03-24T05:37:43;30.40;;;3.95;;
77451;SDS011;66537;52.370;4.832;2023-03-24T05:40:09;27.65;;;4.70;;
77451;SDS011;66537;52.370;4.832;2023-03-24T05:42:35;31.73;;;4.18;;
77451;SDS011;66537;52.370;4.832;2023-03-24T05:45:00;25.67;;;4.00;;
77451;SDS011;66537;52.370;4.832;2023-03-24T05:47:27;31.70;;;4.95;;
77451;SDS011;66537;52.370;4.832;2023-03-24T05:49:52;21.92;;;3.28;;
77451;SDS011;66537;52.370;4.832;2023-03-24T05:52:17;44.47;;;4.60;;
77451;SDS011;66537;52.370;4.832;2023-03-24T05:54:44;34.42;;;3.90;;
77451;SDS011;66537;52.370;4.832;2023-03-24T05:57:13;25.58;;;3.97;;
77451;SDS011;66537;52.370;4.832;2023-03-24T05:59:40;31.38;;;4.68;;
77451;SDS011;66537;52.370;4.832;2023-03-24T06:02:06;23.52;;;3.35;;
77451;SDS011;66537;52.370;4.832;2023-03-24T06:04:32;33.05;;;3.17;;
77451;SDS011;66537;52.370;4.832;2023-03-24T06:06:57;33.80;;;5.70;;
77451;SDS011;66537;52.370;4.832;2023-03-24T06:09:26;29.55;;;3.72;;
77451;SDS011;66537;52.370;4.832;2023-03-24T06:11:56;31.38;;;4.75;;
77451;SDS011;66537;52.370;4.832;2023-03-24T06:14:21;29.13;;;5.70;;
77451;SDS011;66537;52.370;4.832;2023-03-24T06:16:47;23.95;;;3.60;;
77451;SDS011;66537;52.370;4.832;2023-03-24T06:19:15;33.92;;;4.30;;
77451;SDS011;66537;52.370;4.832;2023-03-24T06:21:41;24.98;;;3.30;;
77451;SDS011;66537;52.370;4.832;2023-03-24T06:24:08;26.27;;;3.40;;
77451;SDS011;66537;52.370;4.832;2023-03-24T06:26:38;29.33;;;3.75;;
77451;SDS011;66537;52.370;4.832;2023-03-24T06:29:06;28.88;;;4.10;;
77451;SDS011;66537;52.370;4.832;2023-03-24T06:31:32;29.40;;;4.22;;
77451;SDS011;66537;52.370;4.832;2023-03-24T06:33:58;23.33;;;3.15;;
77451;SDS011;66537;52.370;4.832;2023-03-24T06:36:23;29.85;;;4.93;;
77451;SDS011;66537;52.370;4.832;2023-03-24T06:38:49;25.58;;;4.43;;
77451;SDS011;66537;52.370;4.832;2023-03-24T06:41:15;34.60;;;3.00;;
77451;SDS011;66537;52.370;4.832;2023-03-24T06:43:40;22.30;;;2.95;;
77451;SDS011;66537;52.370;4.832;2023-03-24T06:46:06;25.98;;;3.28;;
77451;SDS011;66537;52.370;4.832;2023-03-24T06:48:31;23.55;;;2.67;;
77451;SDS011;66537;52.370;4.832;2023-03-24T06:50:57;34.80;;;4.50;;
77451;SDS011;66537;52.370;4.832;2023-03-24T06:53:22;33.45;;;3.15;;
77451;SDS011;66537;52.370;4.832;2023-03-24T06:55:48;34.22;;;3.75;;
77451;SDS011;66537;52.370;4.832;2023-03-24T06:58:14;31.50;;;4.32;;
77451;SDS011;66537;52.370;4.832;2023-03-24T07:00:42;32.90;;;3.97;;
77451;SDS011;66537;52.370;4.832;2023-03-24T07:03:08;26.20;;;3.17;;
77451;SDS011;66537;52.370;4.832;2023-03-24T07:05:37;37.17;;;4.82;;
77451;SDS011;66537;52.370;4.832;2023-03-24T07:08:03;29.58;;;3.53;;
77451;SDS011;66537;52.370;4.832;2023-03-24T07:10:29;30.38;;;4.03;;
77451;SDS011;66537;52.370;4.832;2023-03-24T07:12:54;30.08;;;3.00;;
77451;SDS011;66537;52.370;4.832;2023-03-24T07:15:20;26.73;;;3.78;;
77451;SDS011;66537;52.370;4.832;2023-03-24T07:17:45;32.97;;;3.53;;
77451;SDS011;66537;52.370;4.832;2023-03-24T07:20:11;26.15;;;3.80;;
77451;SDS011;66537;52.370;4.832;2023-03-24T07:22:36;29.25;;;3.97;;
77451;SDS011;66537;52.370;4.832;2023-03-24T07:25:02;28.58;;;4.47;;
77451;SDS011;66537;52.370;4.832;2023-03-24T07:27:30;30.83;;;4.40;;
77451;SDS011;66537;52.370;4.832;2023-03-24T07:29:58;36.88;;;3.40;;
77451;SDS011;66537;52.370;4.832;2023-03-24T07:32:25;28.00;;;3.50;;
77451;SDS011;66537;52.370;4.832;2023-03-24T07:34:52;39.75;;;4.03;;
77451;SDS011;66537;52.370;4.832;2023-03-24T07:37:18;37.28;;;4.13;;
77451;SDS011;66537;52.370;4.832;2023-03-24T07:39:43;28.27;;;3.33;;
77451;SDS011;66537;52.370;4.832;2023-03-24T07:42:08;27.08;;;3.60;;
77451;SDS011;66537;52.370;4.832;2023-03-24T07:44:34;23.67;;;3.10;;
77451;SDS011;66537;52.370;4.832;2023-03-24T07:46:59;21.58;;;3.60;;
77451;SDS011;66537;52.370;4.832;2023-03-24T07:49:25;26.67;;;4.05;;
77451;SDS011;66537;52.370;4.832;2023-03-24T07:51:51;27.08;;;3.05;;
77451;SDS011;66537;52.370;4.832;2023-03-24T07:54:16;27.58;;;3.58;;
77451;SDS011;66537;52.370;4.832;2023-03-24T07:56:42;29.88;;;3.85;;
77451;SDS011;66537;52.370;4.832;2023-03-24T07:59:07;24.27;;;3.00;;
77451;SDS011;66537;52.370;4.832;2023-03-24T08:01:33;27.38;;;4.40;;
77451;SDS011;66537;52.370;4.832;2023-03-24T08:04:00;26.40;;;4.22;;
77451;SDS011;66537;52.370;4.832;2023-03-24T08:06:26;25.08;;;3.55;;
77451;SDS011;66537;52.370;4.832;2023-03-24T08:08:53;29.65;;;3.78;;
77451;SDS011;66537;52.370;4.832;2023-03-24T08:11:18;30.75;;;3.70;;
77451;SDS011;66537;52.370;4.832;2023-03-24T08:13:44;27.02;;;4.38;;
77451;SDS011;66537;52.370;4.832;2023-03-24T08:16:10;26.13;;;2.78;;
77451;SDS011;66537;52.370;4.832;2023-03-24T08:18:35;22.85;;;3.90;;
77451;SDS011;66537;52.370;4.832;2023-03-24T08:21:00;21.15;;;3.33;;
77451;SDS011;66537;52.370;4.832;2023-03-24T08:23:26;29.27;;;3.67;;
77451;SDS011;66537;52.370;4.832;2023-03-24T08:25:52;24.50;;;3.72;;
77451;SDS011;66537;52.370;4.832;2023-03-24T08:28:17;21.85;;;2.67;;
77451;SDS011;66537;52.370;4.832;2023-03-24T08:30:43;21.02;;;2.85;;
77451;SDS011;66537;52.370;4.832;2023-03-24T08:33:08;24.33;;;2.65;;
77451;SDS011;66537;52.370;4.832;2023-03-24T08:35:35;19.85;;;2.60;;
77451;SDS011;66537;52.370;4.832;2023-03-24T08:38:05;23.75;;;3.95;;
77451;SDS011;66537;52.370;4.832;2023-03-24T08:40:32;30.55;;;4.25;;
77451;SDS011;66537;52.370;4.832;2023-03-24T08:42:59;30.85;;;3.55;;
77451;SDS011;66537;52.370;4.832;2023-03-24T08:45:28;19.50;;;2.30;;
77451;SDS011;66537;52.370;4.832;2023-03-24T08:47:55;24.08;;;3.10;;
77451;SDS011;66537;52.370;4.832;2023-03-24T08:50:24;30.83;;;3.75;;
77451;SDS011;66537;52.370;4.832;2023-03-24T08:52:52;25.17;;;4.07;;
77451;SDS011;66537;52.370;4.832;2023-03-24T08:55:21;20.23;;;3.00;;
77451;SDS011;66537;52.370;4.832;2023-03-24T08:57:48;28.40;;;4.03;;
77451;SDS011;66537;52.370;4.832;2023-03-24T09:00:14;24.52;;;3.30;;
77451;SDS011;66537;52.370;4.832;2023-03-24T09:02:44;17.15;;;3.15;;
77451;SDS011;66537;52.370;4.832;2023-03-24T09:05:11;16.63;;;2.55;;
77451;SDS011;66537;52.370;4.832;2023-03-24T09:07:39;18.75;;;3.20;;
77451;SDS011;66537;52.370;4.832;2023-03-24T09:10:04;18.00;;;2.17;;
77451;SDS011;66537;52.370;4.832;2023-03-24T09:12:32;20.70;;;2.42;;
77451;SDS011;66537;52.370;4.832;2023-03-24T09:14:58;17.20;;;2.28;;
77451;SDS011;66537;52.370;4.832;2023-03-24T09:17:23;19.30;;;2.63;;
77451;SDS011;66537;52.370;4.832;2023-03-24T09:19:48;18.92;;;2.58;;
77451;SDS011;66537;52.370;4.832;2023-03-24T09:22:14;20.08;;;2.33;;
77451;SDS011;66537;52.370;4.832;2023-03-24T09:24:39;19.50;;;2.65;;
77451;SDS011;66537;52.370;4.832;2023-03-24T09:27:05;25.70;;;3.00;;
77451;SDS011;66537;52.370;4.832;2023-03-24T09:29:30;20.13;;;2.93;;
77451;SDS011;66537;52.370;4.832;2023-03-24T09:31:56;17.53;;;2.63;;
77451;SDS011;66537;52.370;4.832;2023-03-24T09:34:22;20.90;;;2.55;;
77451;SDS011;66537;52.370;4.832;2023-03-24T09:36:47;21.17;;;2.13;;
77451;SDS011;66537;52.370;4.832;2023-03-24T09:39:13;13.77;;;2.00;;
77451;SDS011;66537;52.370;4.832;2023-03-24T09:41:38;16.63;;;2.00;;
77451;SDS011;66537;52.370;4.832;2023-03-24T09:46:48;21.65;;;2.65;;
77451;SDS011;66537;52.370;4.832;2023-03-24T09:49:38;20.77;;;2.80;;
77451;SDS011;66537;52.370;4.832;2023-03-24T09:52:05;22.58;;;2.92;;
77451;SDS011;66537;52.370;4.832;2023-03-24T09:57:07;23.92;;;2.42;;
77451;SDS011;66537;52.370;4.832;2023-03-24T09:59:41;19.92;;;2.67;;
77451;SDS011;66537;52.370;4.832;2023-03-24T10:02:14;25.80;;;3.53;;
77451;SDS011;66537;52.370;4.832;2023-03-24T10:04:42;31.25;;;3.40;;
77451;SDS011;66537;52.370;4.832;2023-03-24T10:09:35;24.50;;;2.65;;
77451;SDS011;66537;52.370;4.832;2023-03-24T10:14:35;20.13;;;2.75;;
77451;SDS011;66537;52.370;4.832;2023-03-24T10:22:39;20.60;;;2.47;;
77451;SDS011;66537;52.370;4.832;2023-03-24T10:27:59;22.40;;;2.90;;
77451;SDS011;66537;52.370;4.832;2023-03-24T10:30:31;19.35;;;2.95;;
77451;SDS011;66537;52.370;4.832;2023-03-24T10:33:01;19.48;;;2.55;;
77451;SDS011;66537;52.370;4.832;2023-03-24T10:35:38;18.60;;;2.78;;
77451;SDS011;66537;52.370;4.832;2023-03-24T10:38:27;18.48;;;2.53;;
77451;SDS011;66537;52.370;4.832;2023-03-24T10:40:53;16.48;;;2.15;;
77451;SDS011;66537;52.370;4.832;2023-03-24T10:43:19;25.63;;;3.38;;
77451;SDS011;66537;52.370;4.832;2023-03-24T10:45:47;19.35;;;2.65;;
77451;SDS011;66537;52.370;4.832;2023-03-24T10:48:35;20.50;;;2.55;;
77451;SDS011;66537;52.370;4.832;2023-03-24T10:51:04;18.92;;;2.72;;
77451;SDS011;66537;52.370;4.832;2023-03-24T10:53:31;16.70;;;3.47;;
77451;SDS011;66537;52.370;4.832;2023-03-24T10:55:58;16.58;;;2.38;;
77451;SDS011;66537;52.370;4.832;2023-03-24T10:58:37;16.20;;;2.70;;
77451;SDS011;66537;52.370;4.832;2023-03-24T11:03:52;22.50;;;2.88;;
77451;SDS011;66537;52.370;4.832;2023-03-24T11:06:24;21.83;;;2.17;;
77451;SDS011;66537;52.370;4.832;2023-03-24T11:09:06;19.15;;;2.28;;
77451;SDS011;66537;52.370;4.832;2023-03-24T11:11:42;19.13;;;2.80;;
77451;SDS011;66537;52.370;4.832;2023-03-24T11:14:17;15.80;;;2.17;;
77451;SDS011;66537;52.370;4.832;2023-03-24T11:16:46;17.60;;;2.53;;
77451;SDS011;66537;52.370;4.832;2023-03-24T11:19:19;15.73;;;2.22;;
77451;SDS011;66537;52.370;4.832;2023-03-24T11:21:46;17.77;;;2.17;;
77451;SDS011;66537;52.370;4.832;2023-03-24T11:24:17;19.27;;;2.38;;
77451;SDS011;66537;52.370;4.832;2023-03-24T11:26:45;19.10;;;2.40;;
77451;SDS011;66537;52.370;4.832;2023-03-24T11:29:21;19.67;;;2.72;;
77451;SDS011;66537;52.370;4.832;2023-03-24T11:31:50;17.98;;;2.30;;
77451;SDS011;66537;52.370;4.832;2023-03-24T11:34:23;16.60;;;2.22;;
77451;SDS011;66537;52.370;4.832;2023-03-24T11:39:21;20.83;;;2.50;;
77451;SDS011;66537;52.370;4.832;2023-03-24T11:41:50;19.58;;;3.60;;
77451;SDS011;66537;52.370;4.832;2023-03-24T11:47:12;16.73;;;1.98;;
77451;SDS011;66537;52.370;4.832;2023-03-24T11:49:43;17.58;;;2.17;;
77451;SDS011;66537;52.370;4.832;2023-03-24T11:52:19;17.08;;;2.90;;
77451;SDS011;66537;52.370;4.832;2023-03-24T11:54:48;15.00;;;2.25;;
77451;SDS011;66537;52.370;4.832;2023-03-24T11:57:14;21.38;;;1.90;;
77451;SDS011;66537;52.370;4.832;2023-03-24T11:59:49;15.85;;;2.35;;
77451;SDS011;66537;52.370;4.832;2023-03-24T12:10:58;12.73;;;1.50;;
77451;SDS011;66537;52.370;4.832;2023-03-24T12:19:00;14.57;;;1.08;;
77451;SDS011;66537;52.370;4.832;2023-03-24T12:26:57;14.35;;;1.63;;
77451;SDS011;66537;52.370;4.832;2023-03-24T12:34:51;13.38;;;1.85;;
77451;SDS011;66537;52.370;4.832;2023-03-24T12:40:32;13.88;;;2.00;;
77451;SDS011;66537;52.370;4.832;2023-03-24T12:45:45;17.75;;;2.00;;
77451;SDS011;66537;52.370;4.832;2023-03-24T12:48:28;20.38;;;2.15;;
77451;SDS011;66537;52.370;4.832;2023-03-24T12:56:37;14.10;;;2.42;;
77451;SDS011;66537;52.370;4.832;2023-03-24T12:59:12;14.70;;;1.75;;
77451;SDS011;66537;52.370;4.832;2023-03-24T13:01:50;19.17;;;2.33;;
77451;SDS011;66537;52.370;4.832;2023-03-24T13:04:29;15.07;;;1.98;;
77451;SDS011;66537;52.370;4.832;2023-03-24T13:12:03;18.70;;;2.43;;
77451;SDS011;66537;52.370;4.832;2023-03-24T13:14:42;17.55;;;2.03;;
77451;SDS011;66537;52.370;4.832;2023-03-24T13:17:25;22.55;;;2.15;;
77451;SDS011;66537;52.370;4.832;2023-03-24T13:19:54;18.10;;;2.15;;
77451;SDS011;66537;52.370;4.832;2023-03-24T13:22:21;15.38;;;1.90;;
77451;SDS011;66537;52.370;4.832;2023-03-24T13:24:49;18.10;;;2.10;;
77451;SDS011;66537;52.370;4.832;2023-03-24T13:29:53;16.20;;;2.53;;
77451;SDS011;66537;52.370;4.832;2023-03-24T13:37:34;9.95;;;1.13;;
77451;SDS011;66537;52.370;4.832;2023-03-24T13:40:14;11.95;;;1.73;;
77451;SDS011;66537;52.370;4.832;2023-03-24T13:42:47;11.02;;;1.55;;
77451;SDS011;66537;52.370;4.832;2023-03-24T13:46:00;12.52;;;1.15;;
77451;SDS011;66537;52.370;4.832;2023-03-24T13:50:58;10.77;;;1.17;;
77451;SDS011;66537;52.370;4.832;2023-03-24T13:54:04;12.32;;;1.42;;
77451;SDS011;66537;52.370;4.832;2023-03-24T13:56:44;11.35;;;1.15;;
77451;SDS011;66537;52.370;4.832;2023-03-24T14:04:48;10.15;;;1.52;;
77451;SDS011;66537;52.370;4.832;2023-03-24T14:10:47;17.55;;;1.60;;
77451;SDS011;66537;52.370;4.832;2023-03-24T14:15:54;19.90;;;2.25;;
77451;SDS011;66537;52.370;4.832;2023-03-24T14:26:05;16.35;;;2.33;;
77451;SDS011;66537;52.370;4.832;2023-03-24T14:28:39;17.45;;;2.15;;
77451;SDS011;66537;52.370;4.832;2023-03-24T14:33:39;19.92;;;2.67;;
77451;SDS011;66537;52.370;4.832;2023-03-24T14:36:39;14.13;;;1.88;;
77451;SDS011;66537;52.370;4.832;2023-03-24T14:44:52;15.32;;;1.70;;
77451;SDS011;66537;52.370;4.832;2023-03-24T14:47:23;15.77;;;1.90;;
77451;SDS011;66537;52.370;4.832;2023-03-24T14:49:51;12.15;;;2.00;;
77451;SDS011;66537;52.370;4.832;2023-03-24T14:52:34;15.57;;;1.92;;
77451;SDS011;66537;52.370;4.832;2023-03-24T14:55:09;13.35;;;1.38;;
77451;SDS011;66537;52.370;4.832;2023-03-24T14:57:41;12.45;;;1.52;;
77451;SDS011;66537;52.370;4.832;2023-03-24T15:02:52;9.68;;;1.23;;
77451;SDS011;66537;52.370;4.832;2023-03-24T15:05:23;14.60;;;1.60;;
77451;SDS011;66537;52.370;4.832;2023-03-24T15:07:59;17.83;;;1.80;;
77451;SDS011;66537;52.370;4.832;2023-03-24T15:10:32;12.00;;;1.58;;
77451;SDS011;66537;52.370;4.832;2023-03-24T15:13:02;12.45;;;1.15;;
77451;SDS011;66537;52.370;4.832;2023-03-24T15:15:28;15.40;;;1.95;;
77451;SDS011;66537;52.370;4.832;2023-03-24T15:17:54;14.13;;;1.77;;
77451;SDS011;66537;52.370;4.832;2023-03-24T15:20:27;11.95;;;1.40;;
77451;SDS011;66537;52.370;4.832;2023-03-24T15:22:55;16.08;;;1.63;;
77451;SDS011;66537;52.370;4.832;2023-03-24T15:25:29;15.13;;;1.67;;
77451;SDS011;66537;52.370;4.832;2023-03-24T15:27:55;16.20;;;2.13;;
77451;SDS011;66537;52.370;4.832;2023-03-24T15:30:24;22.85;;;2.45;;
77451;SDS011;66537;52.370;4.832;2023-03-24T15:32:52;11.82;;;1.40;;
77451;SDS011;66537;52.370;4.832;2023-03-24T15:35:19;14.88;;;2.10;;
77451;SDS011;66537;52.370;4.832;2023-03-24T15:37:50;13.65;;;1.55;;
77451;SDS011;66537;52.370;4.832;2023-03-24T15:42:54;18.92;;;1.83;;
77451;SDS011;66537;52.370;4.832;2023-03-24T15:45:24;14.75;;;2.38;;
77451;SDS011;66537;52.370;4.832;2023-03-24T15:47:52;14.23;;;2.03;;
77451;SDS011;66537;52.370;4.832;2023-03-24T15:50:35;14.32;;;1.50;;
77451;SDS011;66537;52.370;4.832;2023-03-24T15:55:38;14.77;;;1.73;;
77451;SDS011;66537;52.370;4.832;2023-03-24T15:58:25;16.13;;;1.30;;
77451;SDS011;66537;52.370;4.832;2023-03-24T16:00:53;17.80;;;1.77;;
77451;SDS011;66537;52.370;4.832;2023-03-24T16:03:22;13.02;;;1.70;;
77451;SDS011;66537;52.370;4.832;2023-03-24T16:05:52;10.90;;;1.10;;
77451;SDS011;66537;52.370;4.832;2023-03-24T16:08:32;17.05;;;1.88;;
77451;SDS011;66537;52.370;4.832;2023-03-24T16:11:13;16.55;;;1.67;;
77451;SDS011;66537;52.370;4.832;2023-03-24T16:13:40;13.25;;;0.98;;
77451;SDS011;66537;52.370;4.832;2023-03-24T16:18:39;9.77;;;1.30;;
77451;SDS011;66537;52.370;4.832;2023-03-24T16:23:38;9.65;;;1.17;;
77451;SDS011;66537;52.370;4.832;2023-03-24T16:26:08;11.52;;;0.85;;
77451;SDS011;66537;52.370;4.832;2023-03-24T16:28:36;14.30;;;1.60;;
77451;SDS011;66537;52.370;4.832;2023-03-24T16:31:02;12.10;;;1.53;;
77451;SDS011;66537;52.370;4.832;2023-03-24T16:33:29;10.48;;;1.17;;
77451;SDS011;66537;52.370;4.832;2023-03-24T16:35:54;6.10;;;0.80;;
77451;SDS011;66537;52.370;4.832;2023-03-24T16:38:20;12.88;;;1.35;;
77451;SDS011;66537;52.370;4.832;2023-03-24T16:40:50;14.82;;;1.05;;
77451;SDS011;66537;52.370;4.832;2023-03-24T16:43:17;9.48;;;1.08;;
77451;SDS011;66537;52.370;4.832;2023-03-24T16:45:44;14.63;;;2.13;;
77451;SDS011;66537;52.370;4.832;2023-03-24T16:48:11;11.98;;;1.52;;
77451;SDS011;66537;52.370;4.832;2023-03-24T16:50:41;9.48;;;1.73;;
77451;SDS011;66537;52.370;4.832;2023-03-24T16:53:08;12.02;;;1.73;;
77451;SDS011;66537;52.370;4.832;2023-03-24T16:55:34;14.52;;;1.60;;
77451;SDS011;66537;52.370;4.832;2023-03-24T16:58:01;10.15;;;1.17;;
77451;SDS011;66537;52.370;4.832;2023-03-24T17:00:27;10.23;;;1.30;;
77451;SDS011;66537;52.370;4.832;2023-03-24T17:02:54;11.52;;;1.30;;
77451;SDS011;66537;52.370;4.832;2023-03-24T17:05:23;18.25;;;2.53;;
77451;SDS011;66537;52.370;4.832;2023-03-24T17:07:54;17.92;;;1.60;;
77451;SDS011;66537;52.370;4.832;2023-03-24T17:10:21;13.32;;;1.52;;
77451;SDS011;66537;52.370;4.832;2023-03-24T17:12:47;12.48;;;1.30;;
77451;SDS011;66537;52.370;4.832;2023-03-24T17:15:16;15.30;;;2.08;;
77451;SDS011;66537;52.370;4.832;2023-03-24T17:17:44;10.32;;;1.13;;
77451;SDS011;66537;52.370;4.832;2023-03-24T17:20:10;19.00;;;2.42;;
77451;SDS011;66537;52.370;4.832;2023-03-24T17:22:36;21.98;;;1.55;;
77451;SDS011;66537;52.370;4.832;2023-03-24T17:25:01;11.25;;;1.52;;
77451;SDS011;66537;52.370;4.832;2023-03-24T17:27:28;13.68;;;1.38;;
77451;SDS011;66537;52.370;4.832;2023-03-24T17:29:54;9.82;;;1.35;;
77451;SDS011;66537;52.370;4.832;2023-03-24T17:32:19;13.00;;;2.17;;
77451;SDS011;66537;52.370;4.832;2023-03-24T17:34:45;14.73;;;1.17;;
77451;SDS011;66537;52.370;4.832;2023-03-24T17:37:10;12.52;;;1.27;;